sensor_id;sensor_type;location;lat;lon;timestamp;temperature;humidity
47857;DHT22;33618;49.972;8.242;2023-03-26T00:01:34;8.30;99.90
47857;DHT22;33618;49.972;8.242;2023-03-26T00:04:04;8.20;99.90
47857;DHT22;33618;49.972;8.242;2023-03-26T00:06:33;8.20;99.90
47857;DHT22;33618;49.972;8.242;2023-03-26T00:09:04;8.20;99.90
47857;DHT22;33618;49.972;8.242;2023-03-26T00:11:31;8.10;99.90
47857;DHT22;33618;49.972;8.242;2023-03-26T00:13:58;8.20;99.90
47857;DHT22;33618;49.972;8.242;2023-03-26T00:16:26;8.10;99.90
47857;DHT22;33618;49.972;8.242;2023-03-26T00:18:53;8.10;99.90
47857;DHT22;33618;49.972;8.242;2023-03-26T00:21:21;8.10;99.90
47857;DHT22;33618;49.972;8.242;2023-03-26T00:23:54;8.00;99.90
47857;DHT22;33618;49.972;8.242;2023-03-26T00:26:21;8.00;99.90
47857;DHT22;33618;49.972;8.242;2023-03-26T00:28:49;8.00;99.90
47857;DHT22;33618;49.972;8.242;2023-03-26T00:31:16;8.00;99.90
47857;DHT22;33618;49.972;8.242;2023-03-26T00:33:43;8.00;99.90
47857;DHT22;33618;49.972;8.242;2023-03-26T00:36:11;7.90;99.90
47857;DHT22;33618;49.972;8.242;2023-03-26T00:38:42;8.00;99.90
47857;DHT22;33618;49.972;8.242;2023-03-26T00:41:10;8.00;99.90
47857;DHT22;33618;49.972;8.242;2023-03-26T00:43:44;7.90;99.90
47857;DHT22;33618;49.972;8.242;2023-03-26T00:46:14;7.90;99.90
47857;DHT22;33618;49.972;8.242;2023-03-26T00:48:41;7.90;99.90
47857;DHT22;33618;49.972;8.242;2023-03-26T00:51:12;7.90;99.90
47857;DHT22;33618;49.972;8.242;2023-03-26T00:53:41;7.90;99.90
47857;DHT22;33618;49.972;8.242;2023-03-26T00:56:08;7.80;99.90
47857;DHT22;33618;49.972;8.242;2023-03-26T00:58:35;7.80;99.90
47857;DHT22;33618;49.972;8.242;2023-03-26T01:01:04;7.80;99.90
47857;DHT22;33618;49.972;8.242;2023-03-26T01:03:32;7.70;99.90
47857;DHT22;33618;49.972;8.242;2023-03-26T01:06:01;7.80;99.90
47857;DHT22;33618;49.972;8.242;2023-03-26T01:08:31;7.80;99.90
47857;DHT22;33618;49.972;8.242;2023-03-26T01:11:00;7.80;99.90
47857;DHT22;33618;49.972;8.242;2023-03-26T01:13:33;7.80;99.90
47857;DHT22;33618;49.972;8.242;2023-03-26T01:16:01;7.80;99.90
47857;DHT22;33618;49.972;8.242;2023-03-26T01:18:31;7.70;99.90
47857;DHT22;33618;49.972;8.242;2023-03-26T01:21:00;7.70;99.90
47857;DHT22;33618;49.972;8.242;2023-03-26T01:27:19;7.70;99.90
47857;DHT22;33618;49.972;8.242;2023-03-26T01:40:40;7.70;99.90
47857;DHT22;33618;49.972;8.242;2023-03-26T01:45:45;7.70;99.90
47857;DHT22;33618;49.972;8.242;2023-03-26T01:48:13;7.80;99.90
47857;DHT22;33618;49.972;8.242;2023-03-26T01:50:40;7.80;99.90
47857;DHT22;33618;49.972;8.242;2023-03-26T01:53:07;7.80;99.90
47857;DHT22;33618;49.972;8.242;2023-03-26T01:55:47;7.80;99.90
47857;DHT22;33618;49.972;8.242;2023-03-26T01:58:27;7.80;99.90
47857;DHT22;33618;49.972;8.242;2023-03-26T02:01:11;7.90;99.90
47857;DHT22;33618;49.972;8.242;2023-03-26T02:03:43;7.90;99.90
47857;DHT22;33618;49.972;8.242;2023-03-26T02:06:15;7.90;99.90
47857;DHT22;33618;49.972;8.242;2023-03-26T02:08:46;7.90;99.90
47857;DHT22;33618;49.972;8.242;2023-03-26T02:11:17;7.90;99.90
47857;DHT22;33618;49.972;8.242;2023-03-26T02:13:45;7.90;99.90
47857;DHT22;33618;49.972;8.242;2023-03-26T02:16:13;7.80;99.90
47857;DHT22;33618;49.972;8.242;2023-03-26T02:18:42;7.90;99.90
47857;DHT22;33618;49.972;8.242;2023-03-26T02:23:41;7.80;99.90
47857;DHT22;33618;49.972;8.242;2023-03-26T02:26:14;7.90;99.90
47857;DHT22;33618;49.972;8.242;2023-03-26T02:28:40;7.90;99.90
47857;DHT22;33618;49.972;8.242;2023-03-26T02:31:07;7.90;99.90
47857;DHT22;33618;49.972;8.242;2023-03-26T02:33:39;8.00;99.90
47857;DHT22;33618;49.972;8.242;2023-03-26T02:36:06;8.00;99.90
47857;DHT22;33618;49.972;8.242;2023-03-26T02:38:34;8.00;99.90
47857;DHT22;33618;49.972;8.242;2023-03-26T02:41:01;8.10;99.90
47857;DHT22;33618;49.972;8.242;2023-03-26T02:43:28;8.10;99.90
47857;DHT22;33618;49.972;8.242;2023-03-26T02:45:55;8.10;99.90
47857;DHT22;33618;49.972;8.242;2023-03-26T02:48:22;8.00;99.90
47857;DHT22;33618;49.972;8.242;2023-03-26T02:50:49;7.90;99.90
47857;DHT22;33618;49.972;8.242;2023-03-26T02:53:20;8.00;99.90
47857;DHT22;33618;49.972;8.242;2023-03-26T02:55:47;7.90;99.90
47857;DHT22;33618;49.972;8.242;2023-03-26T02:58:13;7.90;99.90
47857;DHT22;33618;49.972;8.242;2023-03-26T03:00:43;7.90;99.90
47857;DHT22;33618;49.972;8.242;2023-03-26T03:03:11;7.90;99.90
47857;DHT22;33618;49.972;8.242;2023-03-26T03:05:38;7.90;99.90
47857;DHT22;33618;49.972;8.242;2023-03-26T03:08:08;8.00;99.90
47857;DHT22;33618;49.972;8.242;2023-03-26T03:10:35;8.10;99.90
47857;DHT22;33618;49.972;8.242;2023-03-26T03:13:03;8.20;99.90
47857;DHT22;33618;49.972;8.242;2023-03-26T03:15:33;8.10;99.90
47857;DHT22;33618;49.972;8.242;2023-03-26T03:18:00;8.20;99.90
47857;DHT22;33618;49.972;8.242;2023-03-26T03:20:27;8.20;99.90
47857;DHT22;33618;49.972;8.242;2023-03-26T03:22:55;8.20;99.90
47857;DHT22;33618;49.972;8.242;2023-03-26T03:25:24;8.20;99.90
47857;DHT22;33618;49.972;8.242;2023-03-26T03:27:51;8.20;99.90
47857;DHT22;33618;49.972;8.242;2023-03-26T03:30:19;8.20;99.90
47857;DHT22;33618;49.972;8.242;2023-03-26T03:32:46;8.20;99.90
47857;DHT22;33618;49.972;8.242;2023-03-26T03:35:13;8.20;99.90
47857;DHT22;33618;49.972;8.242;2023-03-26T03:37:40;8.10;99.90
47857;DHT22;33618;49.972;8.242;2023-03-26T03:40:07;8.10;99.90
47857;DHT22;33618;49.972;8.242;2023-03-26T03:42:36;8.10;99.90
47857;DHT22;33618;49.972;8.242;2023-03-26T03:45:03;8.00;99.90
47857;DHT22;33618;49.972;8.242;2023-03-26T03:47:31;8.00;99.90
47857;DHT22;33618;49.972;8.242;2023-03-26T03:49:58;8.00;99.90
47857;DHT22;33618;49.972;8.242;2023-03-26T03:52:28;8.00;99.90
47857;DHT22;33618;49.972;8.242;2023-03-26T03:54:54;8.00;99.90
47857;DHT22;33618;49.972;8.242;2023-03-26T03:57:23;7.90;99.90
47857;DHT22;33618;49.972;8.242;2023-03-26T03:59:49;7.90;99.90
47857;DHT22;33618;49.972;8.242;2023-03-26T04:02:16;7.80;99.90
47857;DHT22;33618;49.972;8.242;2023-03-26T04:04:56;7.80;99.90
47857;DHT22;33618;49.972;8.242;2023-03-26T04:07:25;7.80;99.90
47857;DHT22;33618;49.972;8.242;2023-03-26T04:09:52;7.70;99.90
47857;DHT22;33618;49.972;8.242;2023-03-26T04:12:19;7.70;99.90
47857;DHT22;33618;49.972;8.242;2023-03-26T04:14:46;7.70;99.90
47857;DHT22;33618;49.972;8.242;2023-03-26T04:17:12;7.70;99.90
47857;DHT22;33618;49.972;8.242;2023-03-26T04:19:41;7.70;99.90
47857;DHT22;33618;49.972;8.242;2023-03-26T04:22:09;7.70;99.90
47857;DHT22;33618;49.972;8.242;2023-03-26T04:24:37;7.60;99.90
47857;DHT22;33618;49.972;8.242;2023-03-26T04:27:06;7.60;99.90
47857;DHT22;33618;49.972;8.242;2023-03-26T04:29:39;7.70;99.90
47857;DHT22;33618;49.972;8.242;2023-03-26T04:32:15;7.70;99.90
47857;DHT22;33618;49.972;8.242;2023-03-26T04:34:44;7.70;99.90
47857;DHT22;33618;49.972;8.242;2023-03-26T04:37:14;7.70;99.90
47857;DHT22;33618;49.972;8.242;2023-03-26T04:39:44;7.70;99.90
47857;DHT22;33618;49.972;8.242;2023-03-26T04:42:11;7.70;99.90
47857;DHT22;33618;49.972;8.242;2023-03-26T04:44:37;7.60;99.90
47857;DHT22;33618;49.972;8.242;2023-03-26T04:47:04;7.70;99.90
47857;DHT22;33618;49.972;8.242;2023-03-26T04:49:30;7.70;99.90
47857;DHT22;33618;49.972;8.242;2023-03-26T04:51:57;7.70;99.90
47857;DHT22;33618;49.972;8.242;2023-03-26T04:54:24;7.70;99.90
47857;DHT22;33618;49.972;8.242;2023-03-26T04:59:24;7.60;99.90
47857;DHT22;33618;49.972;8.242;2023-03-26T05:01:52;7.50;99.90
47857;DHT22;33618;49.972;8.242;2023-03-26T05:04:18;7.50;99.90
47857;DHT22;33618;49.972;8.242;2023-03-26T05:06:45;7.60;99.90
47857;DHT22;33618;49.972;8.242;2023-03-26T05:09:12;7.60;99.90
47857;DHT22;33618;49.972;8.242;2023-03-26T05:11:40;7.70;99.90
47857;DHT22;33618;49.972;8.242;2023-03-26T05:14:07;7.70;99.90
47857;DHT22;33618;49.972;8.242;2023-03-26T05:16:34;7.70;99.90
47857;DHT22;33618;49.972;8.242;2023-03-26T05:19:01;7.70;99.90
47857;DHT22;33618;49.972;8.242;2023-03-26T05:21:28;7.70;99.90
47857;DHT22;33618;49.972;8.242;2023-03-26T05:23:55;7.70;99.90
47857;DHT22;33618;49.972;8.242;2023-03-26T05:26:21;7.80;99.90
47857;DHT22;33618;49.972;8.242;2023-03-26T05:28:48;7.70;99.90
47857;DHT22;33618;49.972;8.242;2023-03-26T05:31:18;7.70;99.90
47857;DHT22;33618;49.972;8.242;2023-03-26T05:33:46;7.70;99.90
47857;DHT22;33618;49.972;8.242;2023-03-26T05:36:14;7.60;99.90
47857;DHT22;33618;49.972;8.242;2023-03-26T05:38:41;7.70;99.90
47857;DHT22;33618;49.972;8.242;2023-03-26T05:41:12;7.70;99.90
47857;DHT22;33618;49.972;8.242;2023-03-26T05:43:39;7.60;99.90
47857;DHT22;33618;49.972;8.242;2023-03-26T05:46:06;7.70;99.90
47857;DHT22;33618;49.972;8.242;2023-03-26T05:48:33;7.70;99.90
47857;DHT22;33618;49.972;8.242;2023-03-26T05:51:00;7.70;99.90
47857;DHT22;33618;49.972;8.242;2023-03-26T05:53:27;7.70;99.90
47857;DHT22;33618;49.972;8.242;2023-03-26T05:55:53;7.70;99.90
47857;DHT22;33618;49.972;8.242;2023-03-26T05:58:24;7.70;99.90
47857;DHT22;33618;49.972;8.242;2023-03-26T06:00:55;7.70;99.90
47857;DHT22;33618;49.972;8.242;2023-03-26T06:03:23;7.70;99.90
47857;DHT22;33618;49.972;8.242;2023-03-26T06:05:51;7.70;99.90
47857;DHT22;33618;49.972;8.242;2023-03-26T06:08:18;7.70;99.90
47857;DHT22;33618;49.972;8.242;2023-03-26T06:10:45;7.70;99.90
47857;DHT22;33618;49.972;8.242;2023-03-26T06:13:11;7.70;99.90
47857;DHT22;33618;49.972;8.242;2023-03-26T06:15:39;7.70;99.90
47857;DHT22;33618;49.972;8.242;2023-03-26T06:18:05;7.70;99.90
47857;DHT22;33618;49.972;8.242;2023-03-26T06:20:32;7.80;99.90
47857;DHT22;33618;49.972;8.242;2023-03-26T06:22:59;7.80;99.90
47857;DHT22;33618;49.972;8.242;2023-03-26T06:25:26;7.70;99.90
47857;DHT22;33618;49.972;8.242;2023-03-26T06:27:52;7.80;99.90
47857;DHT22;33618;49.972;8.242;2023-03-26T06:30:19;7.80;99.90
47857;DHT22;33618;49.972;8.242;2023-03-26T06:32:47;7.80;99.90
47857;DHT22;33618;49.972;8.242;2023-03-26T06:35:14;7.80;99.90
47857;DHT22;33618;49.972;8.242;2023-03-26T06:37:40;7.60;99.90
47857;DHT22;33618;49.972;8.242;2023-03-26T06:40:08;7.50;99.90
47857;DHT22;33618;49.972;8.242;2023-03-26T06:42:34;7.60;99.90
47857;DHT22;33618;49.972;8.242;2023-03-26T06:45:21;7.60;99.90
47857;DHT22;33618;49.972;8.242;2023-03-26T06:47:48;7.50;99.90
47857;DHT22;33618;49.972;8.242;2023-03-26T06:50:15;7.60;99.90
47857;DHT22;33618;49.972;8.242;2023-03-26T06:52:42;7.50;99.90
47857;DHT22;33618;49.972;8.242;2023-03-26T06:55:08;7.50;99.90
47857;DHT22;33618;49.972;8.242;2023-03-26T06:57:36;7.50;99.90
47857;DHT22;33618;49.972;8.242;2023-03-26T07:00:03;7.50;99.90
47857;DHT22;33618;49.972;8.242;2023-03-26T07:02:30;7.60;99.90
47857;DHT22;33618;49.972;8.242;2023-03-26T07:04:57;7.60;99.90
47857;DHT22;33618;49.972;8.242;2023-03-26T07:07:24;7.60;99.90
47857;DHT22;33618;49.972;8.242;2023-03-26T07:09:51;7.60;99.90
47857;DHT22;33618;49.972;8.242;2023-03-26T07:12:17;7.60;99.90
47857;DHT22;33618;49.972;8.242;2023-03-26T07:14:44;7.60;99.90
47857;DHT22;33618;49.972;8.242;2023-03-26T07:17:11;7.60;99.90
47857;DHT22;33618;49.972;8.242;2023-03-26T07:19:38;7.70;99.90
47857;DHT22;33618;49.972;8.242;2023-03-26T07:22:05;7.70;99.90
47857;DHT22;33618;49.972;8.242;2023-03-26T07:24:31;7.70;99.90
47857;DHT22;33618;49.972;8.242;2023-03-26T07:27:03;7.70;99.90
47857;DHT22;33618;49.972;8.242;2023-03-26T07:29:41;7.80;99.90
47857;DHT22;33618;49.972;8.242;2023-03-26T07:40:11;7.90;99.90
47857;DHT22;33618;49.972;8.242;2023-03-26T07:45:16;8.00;99.90
47857;DHT22;33618;49.972;8.242;2023-03-26T07:47:44;8.00;99.90
47857;DHT22;33618;49.972;8.242;2023-03-26T07:50:16;8.00;99.90
47857;DHT22;33618;49.972;8.242;2023-03-26T07:52:44;8.00;99.90
47857;DHT22;33618;49.972;8.242;2023-03-26T07:55:12;8.00;99.90
47857;DHT22;33618;49.972;8.242;2023-03-26T07:57:42;8.00;99.90
47857;DHT22;33618;49.972;8.242;2023-03-26T08:00:19;8.00;99.90
47857;DHT22;33618;49.972;8.242;2023-03-26T08:05:36;8.00;99.90
47857;DHT22;33618;49.972;8.242;2023-03-26T08:08:17;8.00;99.90
47857;DHT22;33618;49.972;8.242;2023-03-26T08:13:22;8.10;99.90
47857;DHT22;33618;49.972;8.242;2023-03-26T08:20:49;8.10;99.90
47857;DHT22;33618;49.972;8.242;2023-03-26T08:23:22;8.10;99.90
47857;DHT22;33618;49.972;8.242;2023-03-26T08:28:39;8.00;99.90
47857;DHT22;33618;49.972;8.242;2023-03-26T08:31:11;8.00;99.90
47857;DHT22;33618;49.972;8.242;2023-03-26T08:33:39;8.00;99.90
47857;DHT22;33618;49.972;8.242;2023-03-26T08:36:06;8.00;99.90
47857;DHT22;33618;49.972;8.242;2023-03-26T08:38:34;7.90;99.90
47857;DHT22;33618;49.972;8.242;2023-03-26T09:11:55;8.40;99.90
47857;DHT22;33618;49.972;8.242;2023-03-26T09:27:19;8.90;99.90
47857;DHT22;33618;49.972;8.242;2023-03-26T09:30:00;9.00;99.90
47857;DHT22;33618;49.972;8.242;2023-03-26T09:32:45;9.10;99.90
47857;DHT22;33618;49.972;8.242;2023-03-26T09:40:44;9.20;99.90
47857;DHT22;33618;49.972;8.242;2023-03-26T09:48:27;9.10;99.90
47857;DHT22;33618;49.972;8.242;2023-03-26T09:58:32;9.40;99.90
47857;DHT22;33618;49.972;8.242;2023-03-26T10:08:51;11.50;99.90
47857;DHT22;33618;49.972;8.242;2023-03-26T10:14:14;11.80;99.90
47857;DHT22;33618;49.972;8.242;2023-03-26T10:27:26;11.80;99.90
47857;DHT22;33618;49.972;8.242;2023-03-26T10:30:00;11.90;99.90
47857;DHT22;33618;49.972;8.242;2023-03-26T10:32:46;11.70;99.90
47857;DHT22;33618;49.972;8.242;2023-03-26T10:40:50;11.00;99.90
47857;DHT22;33618;49.972;8.242;2023-03-26T10:43:27;10.80;99.90
47857;DHT22;33618;49.972;8.242;2023-03-26T10:46:07;10.70;99.90
47857;DHT22;33618;49.972;8.242;2023-03-26T10:51:50;10.30;99.90
47857;DHT22;33618;49.972;8.242;2023-03-26T10:53:59;10.20;99.90
47857;DHT22;33618;49.972;8.242;2023-03-26T10:58:55;10.10;99.90
47857;DHT22;33618;49.972;8.242;2023-03-26T11:01:42;10.50;99.90
47857;DHT22;33618;49.972;8.242;2023-03-26T11:06:54;10.80;99.90
47857;DHT22;33618;49.972;8.242;2023-03-26T11:28:10;13.40;99.90
47857;DHT22;33618;49.972;8.242;2023-03-26T11:33:14;13.50;99.90
47857;DHT22;33618;49.972;8.242;2023-03-26T11:35:44;13.70;99.90
47857;DHT22;33618;49.972;8.242;2023-03-26T11:38:17;14.00;99.90
47857;DHT22;33618;49.972;8.242;2023-03-26T11:40:46;13.90;99.90
47857;DHT22;33618;49.972;8.242;2023-03-26T11:43:17;13.60;99.90
47857;DHT22;33618;49.972;8.242;2023-03-26T11:45:45;14.20;99.90
47857;DHT22;33618;49.972;8.242;2023-03-26T11:48:17;14.20;99.90
47857;DHT22;33618;49.972;8.242;2023-03-26T11:50:52;13.30;99.90
47857;DHT22;33618;49.972;8.242;2023-03-26T11:53:23;11.60;99.90
47857;DHT22;33618;49.972;8.242;2023-03-26T11:56:39;11.20;99.90
47857;DHT22;33618;49.972;8.242;2023-03-26T11:58:48;11.20;99.90
47857;DHT22;33618;49.972;8.242;2023-03-26T12:01:19;11.00;99.90
47857;DHT22;33618;49.972;8.242;2023-03-26T12:04:24;11.20;99.90
47857;DHT22;33618;49.972;8.242;2023-03-26T12:06:50;11.60;99.90
47857;DHT22;33618;49.972;8.242;2023-03-26T12:09:18;12.20;99.90
47857;DHT22;33618;49.972;8.242;2023-03-26T12:11:46;12.90;99.90
47857;DHT22;33618;49.972;8.242;2023-03-26T12:14:17;13.00;99.90
47857;DHT22;33618;49.972;8.242;2023-03-26T12:17:01;13.10;99.90
47857;DHT22;33618;49.972;8.242;2023-03-26T12:19:39;12.80;99.90
47857;DHT22;33618;49.972;8.242;2023-03-26T12:22:25;12.50;99.90
47857;DHT22;33618;49.972;8.242;2023-03-26T12:27:28;12.90;99.90
47857;DHT22;33618;49.972;8.242;2023-03-26T12:32:39;13.10;99.90
47857;DHT22;33618;49.972;8.242;2023-03-26T12:35:14;13.30;99.90
47857;DHT22;33618;49.972;8.242;2023-03-26T12:37:45;13.30;99.80
47857;DHT22;33618;49.972;8.242;2023-03-26T12:42:50;13.70;97.90
47857;DHT22;33618;49.972;8.242;2023-03-26T12:45:38;14.20;96.20
47857;DHT22;33618;49.972;8.242;2023-03-26T12:48:06;14.60;94.70
47857;DHT22;33618;49.972;8.242;2023-03-26T13:00:44;15.50;92.60
47857;DHT22;33618;49.972;8.242;2023-03-26T13:06:27;15.90;91.90
47857;DHT22;33618;49.972;8.242;2023-03-26T13:08:54;15.70;90.10
47857;DHT22;33618;49.972;8.242;2023-03-26T13:24:29;13.10;95.40
47857;DHT22;33618;49.972;8.242;2023-03-26T13:30:01;12.20;99.90
47857;DHT22;33618;49.972;8.242;2023-03-26T13:32:50;11.90;99.90
47857;DHT22;33618;49.972;8.242;2023-03-26T13:35:26;12.10;99.90
47857;DHT22;33618;49.972;8.242;2023-03-26T13:40:32;12.40;99.90
47857;DHT22;33618;49.972;8.242;2023-03-26T13:48:01;12.50;98.80
47857;DHT22;33618;49.972;8.242;2023-03-26T13:50:29;12.80;98.00
47857;DHT22;33618;49.972;8.242;2023-03-26T13:53:04;13.30;96.60
47857;DHT22;33618;49.972;8.242;2023-03-26T13:55:35;13.70;95.60
47857;DHT22;33618;49.972;8.242;2023-03-26T14:01:06;14.70;92.50
47857;DHT22;33618;49.972;8.242;2023-03-26T14:08:55;14.20;91.60
47857;DHT22;33618;49.972;8.242;2023-03-26T14:11:30;14.10;91.90
47857;DHT22;33618;49.972;8.242;2023-03-26T14:14:12;14.00;92.60
47857;DHT22;33618;49.972;8.242;2023-03-26T14:16:41;13.80;91.70
47857;DHT22;33618;49.972;8.242;2023-03-26T14:27:26;13.40;93.60
47857;DHT22;33618;49.972;8.242;2023-03-26T14:42:57;13.50;92.40
47857;DHT22;33618;49.972;8.242;2023-03-26T15:11:09;12.90;93.90
47857;DHT22;33618;49.972;8.242;2023-03-26T15:16:25;12.60;95.10
47857;DHT22;33618;49.972;8.242;2023-03-26T15:42:40;9.70;99.90
47857;DHT22;33618;49.972;8.242;2023-03-26T15:45:12;9.10;99.90
47857;DHT22;33618;49.972;8.242;2023-03-26T16:11:43;8.60;99.90
47857;DHT22;33618;49.972;8.242;2023-03-26T16:14:18;8.90;99.90
47857;DHT22;33618;49.972;8.242;2023-03-26T16:22:05;9.10;99.90
47857;DHT22;33618;49.972;8.242;2023-03-26T16:24:39;9.10;99.90
47857;DHT22;33618;49.972;8.242;2023-03-26T16:32:42;9.10;99.90
47857;DHT22;33618;49.972;8.242;2023-03-26T16:45:14;9.10;99.90
47857;DHT22;33618;49.972;8.242;2023-03-26T16:50:35;9.10;99.90
47857;DHT22;33618;49.972;8.242;2023-03-26T16:55:58;9.10;99.90
47857;DHT22;33618;49.972;8.242;2023-03-26T17:01:21;9.00;99.90
47857;DHT22;33618;49.972;8.242;2023-03-26T17:04:03;9.00;99.90
47857;DHT22;33618;49.972;8.242;2023-03-26T17:19:34;8.80;99.90
47857;DHT22;33618;49.972;8.242;2023-03-26T17:22:08;8.70;99.90
47857;DHT22;33618;49.972;8.242;2023-03-26T17:24:48;8.70;99.90
47857;DHT22;33618;49.972;8.242;2023-03-26T17:32:50;8.70;99.90
47857;DHT22;33618;49.972;8.242;2023-03-26T17:35:12;8.70;99.90
47857;DHT22;33618;49.972;8.242;2023-03-26T17:37:41;8.70;99.90
47857;DHT22;33618;49.972;8.242;2023-03-26T17:40:28;8.70;99.90
47857;DHT22;33618;49.972;8.242;2023-03-26T17:42:59;8.70;99.90
47857;DHT22;33618;49.972;8.242;2023-03-26T17:45:26;8.70;99.90
47857;DHT22;33618;49.972;8.242;2023-03-26T17:47:56;8.70;99.90
47857;DHT22;33618;49.972;8.242;2023-03-26T17:50:31;8.70;99.90
47857;DHT22;33618;49.972;8.242;2023-03-26T17:52:59;8.70;99.90
47857;DHT22;33618;49.972;8.242;2023-03-26T17:55:28;8.60;99.90
47857;DHT22;33618;49.972;8.242;2023-03-26T17:57:59;8.60;99.90
47857;DHT22;33618;49.972;8.242;2023-03-26T18:00:31;8.60;99.90
47857;DHT22;33618;49.972;8.242;2023-03-26T18:03:22;8.60;99.90
47857;DHT22;33618;49.972;8.242;2023-03-26T18:05:46;8.50;99.90
47857;DHT22;33618;49.972;8.242;2023-03-26T18:08:53;8.50;99.90
47857;DHT22;33618;49.972;8.242;2023-03-26T18:16:30;8.40;99.90
47857;DHT22;33618;49.972;8.242;2023-03-26T18:18:59;8.30;99.90
47857;DHT22;33618;49.972;8.242;2023-03-26T18:23:54;8.20;99.90
47857;DHT22;33618;49.972;8.242;2023-03-26T18:31:44;8.10;99.90
47857;DHT22;33618;49.972;8.242;2023-03-26T18:34:13;8.10;99.90
47857;DHT22;33618;49.972;8.242;2023-03-26T18:36:44;8.20;99.90
47857;DHT22;33618;49.972;8.242;2023-03-26T18:39:11;8.10;99.90
47857;DHT22;33618;49.972;8.242;2023-03-26T18:41:38;8.10;99.90
47857;DHT22;33618;49.972;8.242;2023-03-26T18:44:14;8.10;99.90
47857;DHT22;33618;49.972;8.242;2023-03-26T18:46:42;8.10;99.90
47857;DHT22;33618;49.972;8.242;2023-03-26T18:49:12;8.00;99.90
47857;DHT22;33618;49.972;8.242;2023-03-26T18:51:42;8.00;99.90
47857;DHT22;33618;49.972;8.242;2023-03-26T18:54:22;8.00;99.90
47857;DHT22;33618;49.972;8.242;2023-03-26T18:56:49;8.00;99.90
47857;DHT22;33618;49.972;8.242;2023-03-26T18:59:23;8.00;99.90
47857;DHT22;33618;49.972;8.242;2023-03-26T19:01:56;8.00;99.90
47857;DHT22;33618;49.972;8.242;2023-03-26T19:04:24;7.90;99.90
47857;DHT22;33618;49.972;8.242;2023-03-26T19:06:52;7.90;99.90
47857;DHT22;33618;49.972;8.242;2023-03-26T19:09:23;7.90;99.90
47857;DHT22;33618;49.972;8.242;2023-03-26T19:12:03;7.90;99.90
47857;DHT22;33618;49.972;8.242;2023-03-26T19:14:30;7.90;99.90
47857;DHT22;33618;49.972;8.242;2023-03-26T19:17:01;7.90;99.90
47857;DHT22;33618;49.972;8.242;2023-03-26T19:19:30;8.00;99.90
47857;DHT22;33618;49.972;8.242;2023-03-26T19:21:57;8.00;99.90
47857;DHT22;33618;49.972;8.242;2023-03-26T19:24:25;8.00;99.90
47857;DHT22;33618;49.972;8.242;2023-03-26T19:26:52;8.00;99.90
47857;DHT22;33618;49.972;8.242;2023-03-26T19:29:22;8.00;99.90
47857;DHT22;33618;49.972;8.242;2023-03-26T19:31:50;8.00;99.90
47857;DHT22;33618;49.972;8.242;2023-03-26T19:36:56;7.90;99.90
47857;DHT22;33618;49.972;8.242;2023-03-26T19:39:42;7.90;99.90
47857;DHT22;33618;49.972;8.242;2023-03-26T19:42:13;7.80;99.90
47857;DHT22;33618;49.972;8.242;2023-03-26T19:44:40;7.80;99.90
47857;DHT22;33618;49.972;8.242;2023-03-26T19:49:48;7.80;99.90
47857;DHT22;33618;49.972;8.242;2023-03-26T19:57:32;7.80;99.90
47857;DHT22;33618;49.972;8.242;2023-03-26T20:00:05;7.70;99.90
47857;DHT22;33618;49.972;8.242;2023-03-26T20:02:39;7.80;99.90
47857;DHT22;33618;49.972;8.242;2023-03-26T20:05:18;7.80;99.90
47857;DHT22;33618;49.972;8.242;2023-03-26T20:07:48;7.80;99.90
47857;DHT22;33618;49.972;8.242;2023-03-26T20:10:15;7.80;99.90
47857;DHT22;33618;49.972;8.242;2023-03-26T20:12:43;7.80;99.90
47857;DHT22;33618;49.972;8.242;2023-03-26T20:15:15;7.80;99.90
47857;DHT22;33618;49.972;8.242;2023-03-26T20:17:45;7.80;99.90
47857;DHT22;33618;49.972;8.242;2023-03-26T20:20:15;7.80;99.90
47857;DHT22;33618;49.972;8.242;2023-03-26T20:22:43;7.80;99.90
47857;DHT22;33618;49.972;8.242;2023-03-26T20:25:15;7.80;99.90
47857;DHT22;33618;49.972;8.242;2023-03-26T20:27:44;7.70;99.90
47857;DHT22;33618;49.972;8.242;2023-03-26T20:30:12;7.70;99.90
47857;DHT22;33618;49.972;8.242;2023-03-26T20:33:02;7.80;99.90
47857;DHT22;33618;49.972;8.242;2023-03-26T20:35:39;7.70;99.90
47857;DHT22;33618;49.972;8.242;2023-03-26T20:38:06;7.80;99.90
47857;DHT22;33618;49.972;8.242;2023-03-26T20:40:35;7.80;99.90
47857;DHT22;33618;49.972;8.242;2023-03-26T20:43:04;7.70;99.90
47857;DHT22;33618;49.972;8.242;2023-03-26T20:45:35;7.80;99.90
47857;DHT22;33618;49.972;8.242;2023-03-26T20:48:02;7.70;99.90
47857;DHT22;33618;49.972;8.242;2023-03-26T20:50:28;7.80;99.90
47857;DHT22;33618;49.972;8.242;2023-03-26T20:52:57;7.80;99.90
47857;DHT22;33618;49.972;8.242;2023-03-26T20:55:26;7.80;99.90
47857;DHT22;33618;49.972;8.242;2023-03-26T20:57:53;7.80;99.90
47857;DHT22;33618;49.972;8.242;2023-03-26T21:00:21;7.80;99.90
47857;DHT22;33618;49.972;8.242;2023-03-26T21:02:49;7.80;99.90
47857;DHT22;33618;49.972;8.242;2023-03-26T21:05:20;7.90;99.90
47857;DHT22;33618;49.972;8.242;2023-03-26T21:07:51;7.90;99.90
47857;DHT22;33618;49.972;8.242;2023-03-26T21:10:18;7.90;99.90
47857;DHT22;33618;49.972;8.242;2023-03-26T21:15:21;7.80;99.90
47857;DHT22;33618;49.972;8.242;2023-03-26T21:17:50;7.80;99.90
47857;DHT22;33618;49.972;8.242;2023-03-26T21:20:18;7.80;99.90
47857;DHT22;33618;49.972;8.242;2023-03-26T21:25:20;7.80;99.90
47857;DHT22;33618;49.972;8.242;2023-03-26T21:30:36;7.80;99.90
47857;DHT22;33618;49.972;8.242;2023-03-26T21:33:03;7.70;99.90
47857;DHT22;33618;49.972;8.242;2023-03-26T21:35:31;7.70;99.90
47857;DHT22;33618;49.972;8.242;2023-03-26T21:38:02;7.70;99.90
47857;DHT22;33618;49.972;8.242;2023-03-26T21:40:29;7.70;99.90
47857;DHT22;33618;49.972;8.242;2023-03-26T21:42:56;7.60;99.90
47857;DHT22;33618;49.972;8.242;2023-03-26T21:45:23;7.60;99.90
47857;DHT22;33618;49.972;8.242;2023-03-26T21:47:50;7.60;99.90
47857;DHT22;33618;49.972;8.242;2023-03-26T21:50:18;7.50;99.90
47857;DHT22;33618;49.972;8.242;2023-03-26T21:52:46;7.50;99.90
47857;DHT22;33618;49.972;8.242;2023-03-26T21:55:18;7.50;99.90
47857;DHT22;33618;49.972;8.242;2023-03-26T22:03:36;7.50;99.90
47857;DHT22;33618;49.972;8.242;2023-03-26T22:09:04;7.40;99.90
47857;DHT22;33618;49.972;8.242;2023-03-26T22:11:31;7.30;99.90
47857;DHT22;33618;49.972;8.242;2023-03-26T22:13:58;7.30;99.90
47857;DHT22;33618;49.972;8.242;2023-03-26T22:16:27;7.30;99.90
47857;DHT22;33618;49.972;8.242;2023-03-26T22:18:54;7.30;99.90
47857;DHT22;33618;49.972;8.242;2023-03-26T22:21:20;7.30;99.90
47857;DHT22;33618;49.972;8.242;2023-03-26T22:23:49;7.30;99.90
47857;DHT22;33618;49.972;8.242;2023-03-26T22:26:22;7.30;99.90
47857;DHT22;33618;49.972;8.242;2023-03-26T22:28:49;7.30;99.90
47857;DHT22;33618;49.972;8.242;2023-03-26T22:31:16;7.30;99.90
47857;DHT22;33618;49.972;8.242;2023-03-26T22:33:43;7.20;99.90
47857;DHT22;33618;49.972;8.242;2023-03-26T22:36:10;7.20;99.90
47857;DHT22;33618;49.972;8.242;2023-03-26T22:38:50;7.30;99.90
47857;DHT22;33618;49.972;8.242;2023-03-26T22:41:18;7.20;99.90
47857;DHT22;33618;49.972;8.242;2023-03-26T22:43:45;7.20;99.90